createdAt,value
2019-01-06T00:04:39.238Z,2.50
2019-01-06T00:09:50.406Z,1.90
2019-01-06T00:14:45.080Z,1.50
2019-01-06T00:19:47.415Z,1.30
2019-01-06T00:24:49.298Z,1.20
2019-01-06T00:29:51.260Z,1.10
2019-01-06T00:34:53.377Z,1.10
2019-01-06T00:39:55.601Z,1.10
2019-01-06T00:45:14.349Z,1.10
2019-01-06T00:50:23.940Z,1.00
2019-01-06T00:55:33.723Z,0.90
2019-01-06T01:00:40.239Z,0.90
2019-01-06T01:05:46.965Z,0.90
2019-01-06T01:11:01.993Z,1.10
2019-01-06T01:16:05.822Z,0.90
2019-01-06T01:21:21.704Z,1.00
2019-01-06T01:26:31.446Z,0.90
2019-01-06T01:31:33.746Z,0.90
2019-01-06T01:36:37.328Z,0.90
2019-01-06T01:41:43.716Z,0.90
2019-01-06T01:46:47.327Z,1.00
2019-01-06T01:52:05.866Z,0.90
2019-01-06T01:57:08.042Z,0.80
2019-01-06T02:02:14.318Z,0.70
2019-01-06T02:07:21.104Z,0.60
2019-01-06T02:12:24.610Z,0.60
2019-01-06T02:17:37.104Z,0.60
2019-01-06T02:22:40.646Z,0.60
2019-01-06T02:27:50.269Z,0.60
2019-01-06T02:32:59.608Z,0.60
2019-01-06T02:38:02.902Z,0.50
2019-01-06T02:43:24.458Z,0.70
2019-01-06T02:48:37.029Z,0.60
2019-01-06T02:53:40.602Z,0.60
2019-01-06T02:58:42.549Z,0.60
2019-01-06T03:03:44.580Z,0.60
2019-01-06T03:09:06.027Z,0.70
2019-01-06T03:14:15.074Z,0.70
2019-01-06T03:19:21.369Z,0.70
2019-01-06T03:24:30.960Z,0.60
2019-01-06T03:29:37.280Z,0.60
2019-01-06T03:34:41.427Z,0.60
2019-01-06T03:39:51.206Z,0.70
2019-01-06T03:44:57.717Z,0.60
2019-01-06T03:49:59.534Z,0.70
2019-01-06T03:55:01.579Z,0.80
2019-01-06T04:00:20.137Z,0.80
2019-01-06T04:05:22.508Z,0.80
2019-01-06T04:10:24.750Z,0.70
2019-01-06T04:15:34.265Z,0.80
2019-01-06T04:20:43.804Z,0.70
2019-01-06T04:25:51.875Z,0.70
2019-01-06T04:30:58.193Z,0.80
2019-01-06T04:36:16.743Z,0.80
2019-01-06T04:41:25.954Z,0.80
2019-01-06T04:46:29.556Z,0.90
2019-01-06T04:51:49.297Z,0.90
2019-01-06T04:56:51.337Z,1.00
2019-01-06T05:02:06.279Z,1.00
2019-01-06T05:07:02.973Z,0.90
2019-01-06T05:12:12.637Z,1.00
2019-01-06T05:17:14.699Z,1.00
2019-01-06T05:22:15.766Z,1.00
2019-01-06T05:27:18.130Z,1.10
2019-01-06T05:32:29.550Z,1.00
2019-01-06T05:37:31.794Z,1.10
2019-01-06T05:42:35.389Z,1.00
2019-01-06T05:47:37.586Z,1.10
2019-01-06T05:52:37.331Z,1.10
2019-01-06T05:57:45.440Z,1.10
2019-01-06T06:02:51.967Z,1.10
2019-01-06T06:08:07.882Z,1.00
2019-01-06T06:13:14.363Z,1.00
2019-01-06T06:18:16.235Z,1.00
2019-01-06T06:23:18.488Z,1.00
2019-01-06T06:28:21.978Z,1.00
2019-01-06T06:33:45.872Z,0.90
2019-01-06T06:39:00.485Z,0.90
2019-01-06T06:43:57.987Z,1.00
2019-01-06T06:49:02.701Z,0.90
2019-01-06T06:54:05.019Z,0.90
2019-01-06T06:59:03.857Z,0.90
2019-01-06T07:04:05.856Z,0.90
2019-01-06T07:09:08.040Z,0.90
2019-01-06T07:14:11.579Z,0.80
2019-01-06T07:19:13.848Z,0.80
2019-01-06T07:24:16.199Z,0.90
2019-01-06T07:29:17.377Z,0.90
2019-01-06T07:34:20.929Z,1.00
2019-01-06T07:39:33.813Z,0.90
2019-01-06T07:44:40.433Z,0.90
2019-01-06T07:49:43.031Z,0.90
2019-01-06T07:54:52.423Z,0.90
2019-01-06T08:00:02.046Z,1.00
2019-01-06T08:05:05.581Z,1.10
2019-01-06T08:10:28.613Z,1.00
2019-01-06T08:15:30.952Z,1.00
2019-01-06T08:20:49.619Z,0.90
2019-01-06T08:25:53.375Z,1.00
2019-01-06T08:30:59.586Z,1.00
2019-01-06T08:36:15.311Z,1.20
2019-01-06T08:41:25.118Z,1.20
2019-01-06T08:46:27.139Z,1.30
2019-01-06T08:51:33.847Z,1.40
2019-01-06T08:56:49.629Z,1.40
2019-01-06T09:01:51.790Z,1.30
2019-01-06T09:06:55.366Z,1.40
2019-01-06T09:12:01.889Z,1.40
2019-01-06T09:17:11.436Z,1.30
2019-01-06T09:22:20.887Z,1.20
2019-01-06T09:27:36.685Z,1.10
2019-01-06T09:32:42.747Z,1.10
2019-01-06T09:37:55.979Z,1.10
2019-01-06T09:43:08.411Z,1.10
2019-01-06T09:48:30.269Z,1.10
2019-01-06T09:53:42.584Z,1.20
2019-01-06T09:58:50.329Z,1.30
2019-01-06T10:03:55.225Z,1.20
2019-01-06T10:09:15.042Z,1.30
2019-01-06T10:14:18.668Z,1.20
2019-01-06T10:19:15.033Z,1.20
2019-01-06T10:24:27.885Z,1.10
2019-01-06T10:29:23.041Z,1.20
2019-01-06T10:34:27.567Z,1.20
2019-01-06T10:39:31.187Z,1.10
2019-01-06T10:44:40.865Z,1.10
2019-01-06T10:49:42.881Z,1.10
2019-01-06T10:54:45.111Z,1.10
2019-01-06T10:59:51.480Z,1.20
2019-01-06T11:04:53.544Z,1.10
2019-01-06T11:09:48.668Z,1.10
2019-01-06T11:15:04.321Z,1.20
2019-01-06T11:20:07.797Z,1.20
2019-01-06T11:25:10.086Z,1.40
2019-01-06T11:30:12.343Z,1.60
2019-01-06T11:35:14.382Z,1.50
2019-01-06T11:40:16.260Z,1.40
2019-01-06T11:45:17.143Z,1.30
2019-01-06T11:50:19.109Z,1.40
2019-01-06T11:55:22.709Z,1.60
2019-01-06T12:00:18.201Z,1.80
2019-01-06T12:05:19.529Z,1.90
2019-01-06T12:10:35.498Z,2.00
2019-01-06T12:15:44.972Z,1.90
2019-01-06T12:20:57.500Z,1.80
2019-01-06T12:26:00.974Z,1.70
2019-01-06T12:31:03.951Z,1.60
2019-01-06T12:36:22.572Z,1.50
2019-01-06T12:41:29.085Z,1.40
2019-01-06T12:46:31.034Z,1.50
2019-01-06T12:51:34.047Z,1.60
2019-01-06T12:56:37.748Z,1.70
2019-01-06T13:01:39.819Z,1.80
2019-01-06T13:06:41.051Z,1.70
2019-01-06T13:11:53.785Z,2.00
2019-01-06T13:17:15.774Z,1.90
2019-01-06T13:22:22.266Z,1.90
2019-01-06T13:27:37.812Z,1.90
2019-01-06T13:32:46.435Z,1.80
2019-01-06T13:37:46.990Z,1.60
2019-01-06T13:42:56.847Z,1.50
2019-01-06T13:48:00.357Z,1.30
2019-01-06T13:53:18.814Z,1.30
2019-01-06T13:58:28.121Z,1.20
2019-01-06T14:03:37.601Z,1.20
2019-01-06T14:08:55.364Z,1.20
2019-01-06T14:13:54.528Z,1.20
2019-01-06T14:19:03.890Z,1.20
2019-01-06T14:24:10.530Z,1.20
2019-01-06T14:29:16.921Z,1.30
2019-01-06T14:34:17.675Z,1.20
2019-01-06T14:39:20.167Z,1.30
2019-01-06T14:44:22.218Z,1.10
2019-01-06T14:49:24.591Z,1.00
2019-01-06T14:54:26.959Z,1.10
2019-01-06T14:59:36.292Z,1.10
2019-01-06T15:04:55.404Z,1.10
2019-01-06T15:09:57.327Z,1.00
2019-01-06T15:14:59.655Z,1.10
2019-01-06T15:20:03.267Z,1.10
2019-01-06T15:25:15.933Z,1.10
2019-01-06T15:30:25.625Z,1.10
2019-01-06T15:35:47.192Z,1.00
2019-01-06T15:40:50.420Z,1.00
2019-01-06T15:45:51.825Z,1.10
2019-01-06T15:50:58.272Z,1.10
2019-01-06T15:56:01.863Z,1.10
2019-01-06T16:01:11.333Z,1.10
2019-01-06T16:06:13.645Z,1.10
2019-01-06T16:11:32.245Z,1.00
2019-01-06T16:16:42.940Z,1.10
2019-01-06T16:21:52.263Z,1.00
2019-01-06T16:27:14.040Z,1.00
2019-01-06T16:32:35.162Z,1.00
2019-01-06T16:37:37.449Z,1.10
2019-01-06T16:42:47.332Z,1.10
2019-01-06T16:48:10.303Z,1.00
2019-01-06T16:53:15.994Z,1.10
2019-01-06T16:58:14.926Z,1.00
2019-01-06T17:03:31.912Z,1.00
2019-01-06T17:08:34.012Z,0.90
2019-01-06T17:13:36.179Z,0.90
2019-01-06T17:18:39.199Z,0.90
2019-01-06T17:23:51.787Z,0.90
2019-01-06T17:29:13.581Z,1.00
2019-01-06T17:34:20.727Z,1.00
2019-01-06T17:39:27.730Z,1.10
2019-01-06T17:44:46.372Z,1.10
2019-01-06T17:49:56.008Z,1.10
2019-01-06T17:54:59.605Z,1.20
2019-01-06T18:00:12.224Z,1.20
2019-01-06T18:05:15.947Z,1.30
2019-01-06T18:10:22.556Z,1.20
2019-01-06T18:15:46.644Z,1.10
2019-01-06T18:21:08.135Z,1.10
2019-01-06T18:26:11.922Z,1.10
2019-01-06T18:31:17.770Z,1.00
2019-01-06T18:36:41.216Z,1.00
2019-01-06T18:41:56.946Z,1.10
2019-01-06T18:47:09.440Z,1.10
2019-01-06T18:52:23.747Z,1.20
2019-01-06T18:57:27.395Z,1.30
2019-01-06T19:02:48.947Z,1.30
2019-01-06T19:07:55.696Z,1.30
2019-01-06T19:13:02.431Z,1.30
2019-01-06T19:18:01.008Z,1.20
2019-01-06T19:23:18.088Z,1.20
2019-01-06T19:28:34.182Z,1.20
2019-01-06T19:33:40.892Z,1.10
2019-01-06T19:38:43.367Z,1.10
2019-01-06T19:43:45.704Z,1.20
2019-01-06T19:48:49.346Z,1.10
2019-01-06T19:53:52.944Z,1.10
2019-01-06T19:58:55.341Z,1.20
2019-01-06T20:03:58.944Z,1.10
2019-01-06T20:09:19.100Z,1.10
2019-01-06T20:14:24.206Z,1.20
2019-01-06T20:19:39.720Z,1.20
2019-01-06T20:24:47.089Z,1.10
2019-01-06T20:29:50.936Z,1.20
2019-01-06T20:34:54.623Z,1.20
2019-01-06T20:39:56.767Z,1.30
2019-01-06T20:45:12.485Z,1.20
2019-01-06T20:50:14.571Z,1.20
2019-01-06T20:55:17.224Z,1.20
2019-01-06T21:00:26.686Z,1.10
2019-01-06T21:05:27.576Z,1.10
2019-01-06T21:10:40.228Z,1.20
2019-01-06T21:15:53.017Z,1.20
2019-01-06T21:21:08.466Z,1.30
2019-01-06T21:26:11.096Z,1.20
2019-01-06T21:31:13.541Z,1.10
2019-01-06T21:36:17.490Z,1.20
2019-01-06T21:41:20.069Z,1.20
2019-01-06T21:46:22.576Z,1.20
2019-01-06T21:51:29.202Z,1.20
2019-01-06T21:56:39.730Z,1.20
2019-01-06T22:01:46.290Z,1.20
2019-01-06T22:06:56.838Z,1.20
2019-01-06T22:11:59.626Z,1.10
2019-01-06T22:17:02.999Z,1.10
2019-01-06T22:22:21.579Z,1.10
2019-01-06T22:27:37.131Z,1.10
2019-01-06T22:32:40.878Z,1.10
2019-01-06T22:38:02.664Z,1.10
2019-01-06T22:42:55.569Z,1.10
2019-01-06T22:47:59.512Z,1.00
2019-01-06T22:53:10.659Z,1.10
2019-01-06T22:58:12.922Z,1.10
2019-01-06T23:03:16.530Z,1.00
2019-01-06T23:08:17.950Z,1.00
2019-01-06T23:13:22.747Z,1.10
2019-01-06T23:18:35.213Z,1.00
2019-01-06T23:23:50.590Z,1.20
2019-01-06T23:28:54.172Z,1.10
2019-01-06T23:33:56.622Z,1.20
2019-01-06T23:39:07.605Z,1.20
2019-01-06T23:44:29.031Z,1.10
2019-01-06T23:49:33.850Z,1.10
2019-01-06T23:54:35.769Z,1.10
2019-01-06T23:59:39.384Z,1.10
